createdAt,value
2018-09-09T00:00:58.805Z,95.20
2018-09-09T00:03:27.256Z,95.10
2018-09-09T00:05:55.754Z,95.00
2018-09-09T00:08:24.160Z,95.00
2018-09-09T00:10:52.617Z,94.80
2018-09-09T00:13:21.063Z,94.80
2018-09-09T00:15:49.556Z,94.80
2018-09-09T00:18:18.012Z,94.80
2018-09-09T00:20:46.507Z,94.70
2018-09-09T00:23:14.928Z,94.50
2018-09-09T00:25:43.448Z,94.50
2018-09-09T00:28:11.902Z,94.60
2018-09-09T00:30:40.362Z,94.40
2018-09-09T00:33:08.831Z,94.60
2018-09-09T00:35:37.286Z,94.70
2018-09-09T00:38:05.751Z,94.80
2018-09-09T00:40:34.198Z,94.80
2018-09-09T00:43:02.651Z,94.90
2018-09-09T00:45:31.067Z,94.90
2018-09-09T00:48:00.517Z,94.90
2018-09-09T00:50:34.472Z,94.80
2018-09-09T00:53:08.122Z,94.70
2018-09-09T00:55:36.580Z,94.80
2018-09-09T00:58:05.208Z,94.80
2018-09-09T01:00:38.942Z,94.80
2018-09-09T01:03:07.434Z,94.90
2018-09-09T01:05:35.885Z,94.80
2018-09-09T01:08:04.491Z,94.90
2018-09-09T01:10:32.958Z,95.00
2018-09-09T01:13:01.399Z,95.00
2018-09-09T01:15:29.859Z,95.10
2018-09-09T01:17:58.266Z,95.10
2018-09-09T01:20:26.712Z,95.00
2018-09-09T01:22:55.124Z,94.90
2018-09-09T01:25:23.668Z,94.90
2018-09-09T01:27:52.098Z,94.80
2018-09-09T01:30:20.625Z,94.50
2018-09-09T01:32:49.170Z,94.30
2018-09-09T01:35:17.897Z,94.30
2018-09-09T01:37:46.328Z,94.40
2018-09-09T01:40:14.761Z,94.40
2018-09-09T01:42:43.173Z,94.30
2018-09-09T01:45:11.613Z,94.20
2018-09-09T01:47:40.077Z,94.20
2018-09-09T01:50:08.618Z,94.20
2018-09-09T01:52:37.079Z,94.10
2018-09-09T01:55:06.128Z,94.10
2018-09-09T01:57:34.612Z,94.00
2018-09-09T02:00:03.054Z,93.90
2018-09-09T02:02:31.576Z,93.80
2018-09-09T02:05:00.136Z,93.80
2018-09-09T02:07:28.593Z,93.60
2018-09-09T02:09:57.036Z,93.50
2018-09-09T02:12:25.485Z,93.50
2018-09-09T02:14:53.929Z,93.40
2018-09-09T02:17:22.414Z,93.50
2018-09-09T02:19:50.925Z,93.60
2018-09-09T02:22:19.423Z,93.50
2018-09-09T02:24:47.893Z,93.40
2018-09-09T02:27:16.582Z,93.40
2018-09-09T02:29:45.144Z,93.80
2018-09-09T02:32:13.641Z,93.90
2018-09-09T02:34:42.049Z,94.20
2018-09-09T02:37:10.502Z,94.20
2018-09-09T02:39:38.980Z,94.20
2018-09-09T02:42:07.410Z,94.20
2018-09-09T02:44:35.876Z,94.30
2018-09-09T02:47:04.435Z,94.30
2018-09-09T02:49:33.080Z,94.40
2018-09-09T02:52:01.917Z,94.60
2018-09-09T02:54:30.369Z,94.60
2018-09-09T02:56:58.776Z,94.60
2018-09-09T02:59:27.208Z,94.80
2018-09-09T03:01:55.635Z,94.70
2018-09-09T03:04:24.053Z,94.70
2018-09-09T03:06:52.563Z,94.70
2018-09-09T03:09:21.003Z,94.50
2018-09-09T03:11:49.465Z,94.60
2018-09-09T03:14:17.923Z,94.70
2018-09-09T03:16:46.394Z,94.50
2018-09-09T03:19:14.958Z,94.50
2018-09-09T03:21:43.431Z,94.60
2018-09-09T03:24:11.882Z,94.50
2018-09-09T03:26:40.321Z,94.40
2018-09-09T03:29:08.733Z,94.30
2018-09-09T03:31:37.301Z,94.20
2018-09-09T03:34:06.135Z,94.00
2018-09-09T03:36:34.564Z,93.70
2018-09-09T03:39:03.081Z,93.70
2018-09-09T03:41:31.519Z,93.60
2018-09-09T03:43:59.928Z,93.60
2018-09-09T03:46:28.697Z,93.30
2018-09-09T03:48:57.356Z,93.30
2018-09-09T03:51:25.837Z,93.20
2018-09-09T03:53:54.275Z,93.10
2018-09-09T03:56:22.709Z,93.10
2018-09-09T03:58:51.353Z,93.00
2018-09-09T04:01:20.013Z,92.80
2018-09-09T04:03:48.708Z,93.10
2018-09-09T04:06:17.137Z,92.70
2018-09-09T04:08:45.878Z,92.70
2018-09-09T04:11:14.304Z,92.60
2018-09-09T04:13:43.560Z,92.50
2018-09-09T04:16:13.136Z,92.50
2018-09-09T04:18:42.625Z,92.50
2018-09-09T04:21:11.057Z,92.50
2018-09-09T04:23:39.624Z,92.50
2018-09-09T04:26:08.079Z,92.50
2018-09-09T04:28:36.594Z,92.30
2018-09-09T04:31:05.177Z,92.30
2018-09-09T04:33:33.810Z,92.00
2018-09-09T04:36:02.446Z,92.00
2018-09-09T04:38:30.872Z,91.80
2018-09-09T04:40:59.337Z,91.80
2018-09-09T04:43:27.790Z,91.70
2018-09-09T04:45:56.312Z,91.60
2018-09-09T04:48:24.762Z,91.80
2018-09-09T04:50:53.185Z,91.70
2018-09-09T04:53:21.684Z,91.80
2018-09-09T04:55:50.140Z,91.60
2018-09-09T04:58:18.598Z,91.60
2018-09-09T05:00:47.022Z,91.70
2018-09-09T05:03:15.448Z,91.60
2018-09-09T05:05:43.958Z,91.60
2018-09-09T05:08:12.376Z,91.50
2018-09-09T05:10:40.802Z,91.40
2018-09-09T05:13:09.247Z,91.60
2018-09-09T05:15:37.718Z,91.30
2018-09-09T05:18:06.174Z,91.30
2018-09-09T05:20:34.629Z,91.10
2018-09-09T05:23:03.084Z,91.10
2018-09-09T05:25:31.525Z,91.00
2018-09-09T05:27:59.988Z,91.00
2018-09-09T05:30:28.434Z,91.10
2018-09-09T05:32:56.879Z,90.80
2018-09-09T05:35:25.352Z,90.80
2018-09-09T05:37:53.792Z,91.00
2018-09-09T05:40:22.264Z,91.10
2018-09-09T05:42:50.763Z,91.10
2018-09-09T05:45:19.179Z,91.20
2018-09-09T05:47:47.640Z,91.20
2018-09-09T05:50:16.155Z,91.10
2018-09-09T05:52:44.565Z,91.50
2018-09-09T05:55:13.169Z,90.90
2018-09-09T05:57:41.651Z,91.10
2018-09-09T06:00:10.166Z,91.00
2018-09-09T06:02:38.600Z,90.80
2018-09-09T06:05:07.074Z,90.80
2018-09-09T06:07:35.663Z,90.80
2018-09-09T06:10:04.201Z,90.70
2018-09-09T06:12:32.608Z,90.50
2018-09-09T06:15:01.074Z,90.10
2018-09-09T06:17:29.550Z,89.70
2018-09-09T06:19:57.967Z,89.10
2018-09-09T06:22:26.598Z,88.40
2018-09-09T06:24:55.043Z,87.90
2018-09-09T06:27:23.485Z,87.40
2018-09-09T06:29:52.086Z,87.00
2018-09-09T06:32:20.611Z,86.60
2018-09-09T06:34:49.093Z,86.80
2018-09-09T06:37:17.497Z,86.70
2018-09-09T06:39:45.988Z,86.30
2018-09-09T06:42:14.413Z,85.80
2018-09-09T06:44:42.865Z,85.40
2018-09-09T06:47:11.330Z,84.80
2018-09-09T06:49:39.824Z,83.20
2018-09-09T06:52:08.301Z,83.20
2018-09-09T06:54:36.788Z,82.90
2018-09-09T06:57:05.254Z,82.10
2018-09-09T06:59:33.812Z,81.80
2018-09-09T07:02:02.233Z,81.60
2018-09-09T07:04:30.689Z,81.60
2018-09-09T07:06:59.168Z,80.50
2018-09-09T07:09:27.628Z,79.10
2018-09-09T07:11:57.117Z,77.10
2018-09-09T07:14:25.402Z,76.60
2018-09-09T07:16:53.833Z,77.10
2018-09-09T07:19:22.247Z,76.50
2018-09-09T07:21:50.729Z,77.00
2018-09-09T07:24:19.185Z,77.00
2018-09-09T07:26:47.725Z,76.80
2018-09-09T07:29:16.190Z,76.60
2018-09-09T07:31:44.613Z,76.70
2018-09-09T07:34:13.143Z,76.30
2018-09-09T07:36:41.665Z,76.80
2018-09-09T07:39:10.115Z,76.60
2018-09-09T07:41:38.647Z,76.70
2018-09-09T07:44:07.264Z,75.50
2018-09-09T07:46:35.763Z,74.70
2018-09-09T07:49:04.327Z,74.10
2018-09-09T07:51:32.801Z,73.70
2018-09-09T07:54:01.295Z,73.20
2018-09-09T07:56:29.825Z,72.70
2018-09-09T07:58:58.362Z,71.20
2018-09-09T08:01:26.949Z,68.70
2018-09-09T08:03:55.671Z,67.20
2018-09-09T08:06:24.113Z,66.70
2018-09-09T08:08:52.685Z,65.30
2018-09-09T08:11:21.102Z,64.10
2018-09-09T08:13:49.538Z,62.90
2018-09-09T08:16:18.027Z,62.30
2018-09-09T08:18:46.936Z,61.20
2018-09-09T08:21:15.420Z,61.00
2018-09-09T08:23:44.106Z,60.00
2018-09-09T08:26:12.506Z,59.60
2018-09-09T08:28:40.942Z,59.20
2018-09-09T08:31:09.339Z,59.00
2018-09-09T08:33:37.797Z,58.90
2018-09-09T08:36:06.181Z,58.60
2018-09-09T08:38:34.698Z,58.40
2018-09-09T08:41:03.145Z,57.60
2018-09-09T08:43:31.611Z,56.10
2018-09-09T08:46:00.068Z,55.30
2018-09-09T08:48:28.541Z,55.30
2018-09-09T08:50:57.018Z,55.20
2018-09-09T08:53:25.522Z,55.00
2018-09-09T08:55:54.009Z,55.00
2018-09-09T08:58:22.497Z,54.30
2018-09-09T09:00:51.347Z,52.10
2018-09-09T09:03:19.829Z,51.70
2018-09-09T09:05:48.339Z,51.30
2018-09-09T09:08:16.815Z,50.80
2018-09-09T09:10:45.377Z,49.70
2018-09-09T09:13:14.313Z,48.70
2018-09-09T09:15:42.772Z,47.70
2018-09-09T09:18:11.471Z,47.70
2018-09-09T09:20:39.940Z,46.50
2018-09-09T09:23:08.358Z,45.00
2018-09-09T09:25:40.438Z,42.90
2018-09-09T09:28:08.919Z,41.60
2018-09-09T09:30:37.397Z,40.80
2018-09-09T09:33:05.986Z,40.90
2018-09-09T09:35:39.893Z,41.20
2018-09-09T09:38:08.343Z,38.60
2018-09-09T09:40:36.856Z,36.50
2018-09-09T09:43:05.357Z,35.30
2018-09-09T09:45:33.914Z,33.80
2018-09-09T09:48:02.398Z,31.20
2018-09-09T09:50:30.828Z,30.30
2018-09-09T09:52:59.373Z,28.80
2018-09-09T09:55:27.863Z,28.30
2018-09-09T09:57:56.700Z,27.60
2018-09-09T10:01:29.076Z,26.50
2018-09-09T10:03:57.545Z,25.30
2018-09-09T10:06:26.021Z,24.70
2018-09-09T10:08:54.528Z,24.10
2018-09-09T10:11:23.047Z,24.00
2018-09-09T10:13:51.550Z,23.90
2018-09-09T10:16:20.032Z,24.30
2018-09-09T10:18:48.517Z,24.40
2018-09-09T10:21:17.020Z,24.60
2018-09-09T10:23:45.563Z,24.40
2018-09-09T10:26:14.010Z,24.10
2018-09-09T10:28:42.516Z,23.90
2018-09-09T10:31:11.022Z,23.10
2018-09-09T10:33:39.499Z,23.40
2018-09-09T10:36:07.995Z,23.40
2018-09-09T10:38:36.489Z,23.50
2018-09-09T10:41:04.987Z,23.40
2018-09-09T10:43:33.441Z,23.50
2018-09-09T10:46:01.953Z,24.00
2018-09-09T10:48:30.446Z,24.50
2018-09-09T10:50:59.236Z,25.10
2018-09-09T10:53:27.739Z,25.70
2018-09-09T10:55:56.366Z,26.50
2018-09-09T10:58:24.827Z,27.00
2018-09-09T11:00:53.485Z,27.80
2018-09-09T11:03:21.945Z,28.70
2018-09-09T11:05:50.455Z,29.00
2018-09-09T11:08:18.934Z,29.30
2018-09-09T11:10:47.445Z,30.00
2018-09-09T11:13:15.943Z,30.20
2018-09-09T11:15:44.410Z,30.70
2018-09-09T11:18:12.912Z,31.10
2018-09-09T11:20:41.410Z,31.40
2018-09-09T11:23:09.884Z,31.60
2018-09-09T11:25:38.409Z,32.10
2018-09-09T11:28:06.932Z,32.10
2018-09-09T11:30:35.491Z,32.30
2018-09-09T11:33:04.081Z,32.70
2018-09-09T11:35:32.601Z,33.10
2018-09-09T11:38:01.118Z,33.10
2018-09-09T11:40:29.733Z,33.10
2018-09-09T11:42:58.209Z,34.00
2018-09-09T11:45:26.789Z,33.80
2018-09-09T11:47:55.491Z,33.70
2018-09-09T11:50:24.039Z,33.70
2018-09-09T11:52:52.545Z,33.80
2018-09-09T11:55:21.255Z,34.30
2018-09-09T11:57:49.951Z,33.90
2018-09-09T12:00:18.408Z,33.70
2018-09-09T12:02:46.919Z,33.60
2018-09-09T12:05:22.182Z,33.50
2018-09-09T12:07:50.630Z,34.20
2018-09-09T12:10:19.187Z,33.70
2018-09-09T12:12:47.724Z,34.10
2018-09-09T12:15:16.267Z,33.80
2018-09-09T12:17:44.977Z,34.80
2018-09-09T12:20:13.467Z,34.20
2018-09-09T12:22:41.957Z,34.40
2018-09-09T12:25:10.633Z,34.70
2018-09-09T12:27:39.321Z,34.80
2018-09-09T12:30:07.994Z,35.30
2018-09-09T12:32:36.501Z,35.60
2018-09-09T12:35:05.202Z,35.40
2018-09-09T12:37:33.664Z,36.20
2018-09-09T12:40:02.141Z,35.60
2018-09-09T12:42:30.645Z,35.60
2018-09-09T12:45:04.429Z,36.40
2018-09-09T12:47:38.284Z,37.10
2018-09-09T12:50:07.074Z,37.70
2018-09-09T12:52:35.525Z,37.90
2018-09-09T12:55:04.084Z,37.40
2018-09-09T12:57:32.531Z,37.10
2018-09-09T13:00:01.022Z,36.70
2018-09-09T13:02:29.514Z,36.70
2018-09-09T13:04:58.622Z,36.90
2018-09-09T13:07:27.226Z,37.40
2018-09-09T13:09:55.813Z,37.70
2018-09-09T13:12:24.288Z,37.80
2018-09-09T13:14:52.877Z,37.60
2018-09-09T13:17:21.362Z,37.60
2018-09-09T13:19:49.876Z,37.40
2018-09-09T13:22:18.341Z,37.60
2018-09-09T13:24:46.794Z,37.70
2018-09-09T13:27:15.400Z,37.60
2018-09-09T13:29:43.844Z,37.80
2018-09-09T13:32:12.309Z,37.90
2018-09-09T13:34:40.880Z,38.20
2018-09-09T13:37:09.365Z,38.30
2018-09-09T13:39:37.903Z,38.00
2018-09-09T13:42:06.556Z,37.70
2018-09-09T13:44:35.031Z,37.60
2018-09-09T13:47:03.553Z,37.30
2018-09-09T13:49:32.165Z,37.30
2018-09-09T13:52:00.700Z,37.50
2018-09-09T13:54:29.180Z,37.70
2018-09-09T13:56:57.672Z,38.00
2018-09-09T13:59:26.200Z,38.10
2018-09-09T14:01:54.801Z,37.70
2018-09-09T14:04:23.294Z,37.80
2018-09-09T14:06:51.870Z,38.00
2018-09-09T14:09:20.335Z,38.10
2018-09-09T14:11:48.855Z,37.90
2018-09-09T14:14:17.317Z,38.50
2018-09-09T14:16:45.744Z,37.80
2018-09-09T14:19:14.249Z,37.30
2018-09-09T14:21:42.727Z,37.80
2018-09-09T14:24:11.233Z,38.10
2018-09-09T14:26:39.697Z,38.20
2018-09-09T14:29:08.218Z,37.90
2018-09-09T14:31:36.768Z,37.90
2018-09-09T14:34:05.195Z,38.70
2018-09-09T14:36:33.733Z,37.90
2018-09-09T14:39:02.202Z,37.60
2018-09-09T14:41:30.667Z,37.70
2018-09-09T14:43:59.221Z,37.70
2018-09-09T14:46:27.775Z,37.90
2018-09-09T14:48:56.210Z,37.90
2018-09-09T14:51:24.699Z,37.30
2018-09-09T14:53:53.157Z,36.60
2018-09-09T14:56:21.713Z,36.90
2018-09-09T14:58:50.203Z,37.40
2018-09-09T15:01:18.708Z,37.60
2018-09-09T15:03:47.305Z,37.90
2018-09-09T15:06:15.846Z,38.30
2018-09-09T15:08:44.291Z,38.60
2018-09-09T15:11:12.757Z,38.60
2018-09-09T15:13:41.452Z,38.80
2018-09-09T15:16:09.938Z,38.60
2018-09-09T15:18:38.561Z,38.50
2018-09-09T15:21:07.040Z,38.50
2018-09-09T15:23:35.581Z,38.50
2018-09-09T15:26:04.074Z,38.40
2018-09-09T15:28:32.617Z,38.40
2018-09-09T15:31:01.194Z,39.10
2018-09-09T15:33:29.650Z,39.60
2018-09-09T15:35:58.173Z,40.50
2018-09-09T15:38:26.805Z,40.90
2018-09-09T15:40:55.261Z,41.40
2018-09-09T15:43:23.763Z,41.20
2018-09-09T15:45:52.259Z,41.40
2018-09-09T15:48:20.752Z,41.30
2018-09-09T15:50:49.237Z,40.80
2018-09-09T15:53:17.775Z,41.10
2018-09-09T15:55:46.402Z,40.60
2018-09-09T15:58:15.065Z,40.80
2018-09-09T16:00:43.518Z,40.90
2018-09-09T16:03:11.987Z,40.90
2018-09-09T16:05:40.593Z,41.30
2018-09-09T16:08:09.049Z,41.60
2018-09-09T16:10:37.598Z,41.90
2018-09-09T16:13:06.097Z,42.00
2018-09-09T16:15:34.643Z,42.30
2018-09-09T16:18:03.191Z,42.40
2018-09-09T16:20:31.668Z,42.60
2018-09-09T16:23:00.309Z,42.80
2018-09-09T16:25:28.808Z,43.30
2018-09-09T16:27:57.275Z,43.80
2018-09-09T16:30:25.820Z,44.20
2018-09-09T16:32:54.306Z,44.30
2018-09-09T16:35:22.792Z,44.30
2018-09-09T16:37:51.286Z,44.70
2018-09-09T16:40:19.731Z,45.00
2018-09-09T16:42:48.419Z,45.10
2018-09-09T16:45:17.356Z,45.10
2018-09-09T16:47:45.781Z,45.40
2018-09-09T16:50:14.282Z,45.80
2018-09-09T16:52:42.929Z,45.90
2018-09-09T16:55:11.417Z,46.30
2018-09-09T16:57:40.081Z,46.40
2018-09-09T17:00:08.625Z,46.70
2018-09-09T17:02:37.100Z,46.80
2018-09-09T17:05:05.625Z,47.10
2018-09-09T17:07:34.099Z,47.10
2018-09-09T17:10:02.648Z,47.00
2018-09-09T17:12:31.208Z,46.90
2018-09-09T17:14:59.925Z,47.10
2018-09-09T17:17:28.454Z,47.50
2018-09-09T17:19:57.014Z,47.70
2018-09-09T17:22:25.495Z,48.10
2018-09-09T17:24:53.922Z,48.50
2018-09-09T17:27:22.476Z,48.80
2018-09-09T17:29:51.037Z,49.00
2018-09-09T17:32:19.482Z,49.40
2018-09-09T17:34:48.018Z,49.60
2018-09-09T17:37:16.548Z,49.70
2018-09-09T17:39:45.070Z,49.80
2018-09-09T17:42:13.579Z,50.00
2018-09-09T17:44:42.056Z,50.20
2018-09-09T17:47:10.587Z,50.30
2018-09-09T17:49:39.146Z,50.50
2018-09-09T17:52:07.646Z,50.80
2018-09-09T17:54:36.160Z,51.10
2018-09-09T17:57:04.647Z,51.50
2018-09-09T17:59:33.219Z,51.90
2018-09-09T18:02:01.765Z,52.60
2018-09-09T18:04:30.243Z,53.40
2018-09-09T18:06:58.705Z,54.00
2018-09-09T18:09:30.005Z,54.60
2018-09-09T18:11:58.594Z,55.20
2018-09-09T18:14:27.066Z,55.80
2018-09-09T18:16:55.593Z,56.00
2018-09-09T18:19:24.147Z,56.70
2018-09-09T18:21:52.697Z,57.40
2018-09-09T18:24:21.345Z,58.00
2018-09-09T18:26:50.004Z,58.70
2018-09-09T18:29:18.783Z,59.20
2018-09-09T18:31:47.249Z,59.60
2018-09-09T18:34:15.762Z,60.30
2018-09-09T18:36:44.354Z,60.80
2018-09-09T18:39:13.008Z,61.30
2018-09-09T18:41:41.489Z,61.80
2018-09-09T18:44:10.163Z,62.50
2018-09-09T18:46:38.769Z,63.20
2018-09-09T18:49:07.353Z,63.80
2018-09-09T18:51:35.925Z,64.40
2018-09-09T18:54:05.227Z,65.30
2018-09-09T18:56:33.925Z,66.40
2018-09-09T18:59:02.521Z,66.80
2018-09-09T19:01:30.980Z,67.50
2018-09-09T19:03:59.586Z,68.30
2018-09-09T19:06:28.074Z,68.80
2018-09-09T19:08:56.651Z,69.00
2018-09-09T19:11:25.087Z,69.80
2018-09-09T19:13:53.743Z,70.60
2018-09-09T19:16:22.200Z,71.10
2018-09-09T19:18:50.823Z,71.70
2018-09-09T19:21:19.407Z,72.60
2018-09-09T19:23:47.890Z,73.60
2018-09-09T19:26:16.467Z,74.50
2018-09-09T19:28:44.954Z,75.10
2018-09-09T19:31:13.540Z,76.10
2018-09-09T19:33:42.010Z,77.40
2018-09-09T19:36:10.512Z,77.80
2018-09-09T19:38:38.996Z,78.40
2018-09-09T19:41:07.603Z,79.10
2018-09-09T19:43:36.309Z,79.70
2018-09-09T19:46:04.869Z,80.40
2018-09-09T19:48:33.390Z,81.10
2018-09-09T19:51:01.973Z,81.90
2018-09-09T19:53:30.458Z,83.10
2018-09-09T19:55:59.033Z,83.70
2018-09-09T19:58:27.861Z,84.30
2018-09-09T20:00:56.365Z,85.50
2018-09-09T20:03:24.916Z,86.80
2018-09-09T20:05:53.661Z,88.00
2018-09-09T20:08:22.368Z,88.80
2018-09-09T20:10:50.842Z,89.80
2018-09-09T20:13:19.340Z,90.40
2018-09-09T20:15:47.913Z,90.70
2018-09-09T20:18:16.411Z,91.30
2018-09-09T20:20:44.937Z,91.50
2018-09-09T20:23:13.660Z,92.00
2018-09-09T20:25:42.203Z,92.20
2018-09-09T20:28:10.652Z,92.50
2018-09-09T20:30:39.092Z,92.70
2018-09-09T20:33:07.173Z,93.20
2018-09-09T20:35:35.606Z,93.00
2018-09-09T20:38:04.072Z,93.10
2018-09-09T20:40:32.528Z,93.40
2018-09-09T20:43:01.039Z,93.60
2018-09-09T20:45:29.497Z,93.60
2018-09-09T20:47:57.977Z,94.20
2018-09-09T20:50:26.404Z,94.60
2018-09-09T20:52:54.887Z,94.70
2018-09-09T20:55:23.436Z,94.80
2018-09-09T20:57:51.981Z,94.80
2018-09-09T21:00:20.445Z,94.70
2018-09-09T21:02:48.910Z,94.70
2018-09-09T21:05:17.416Z,94.80
2018-09-09T21:07:45.896Z,95.10
2018-09-09T21:10:14.420Z,95.00
2018-09-09T21:12:42.930Z,95.10
2018-09-09T21:15:11.393Z,95.10
2018-09-09T21:17:39.829Z,95.10
2018-09-09T21:20:08.352Z,95.00
2018-09-09T21:22:36.817Z,95.00
2018-09-09T21:25:05.582Z,95.10
2018-09-09T21:27:34.066Z,95.20
2018-09-09T21:30:02.578Z,95.00
2018-09-09T21:32:31.174Z,94.90
2018-09-09T21:34:59.676Z,94.90
2018-09-09T21:37:28.123Z,94.70
2018-09-09T21:39:56.604Z,94.50
2018-09-09T21:42:25.048Z,94.00
2018-09-09T21:44:53.503Z,93.80
2018-09-09T21:47:22.034Z,93.60
2018-09-09T21:49:50.468Z,93.20
2018-09-09T21:52:18.900Z,92.40
2018-09-09T21:54:47.346Z,91.50
2018-09-09T21:57:15.808Z,90.90
2018-09-09T21:59:44.282Z,90.30
2018-09-09T22:02:15.529Z,90.00
2018-09-09T22:04:44.045Z,89.20
2018-09-09T22:07:13.703Z,88.70
2018-09-09T22:09:43.527Z,88.30
2018-09-09T22:12:12.731Z,88.30
2018-09-09T22:14:42.102Z,88.00
2018-09-09T22:17:11.344Z,87.70
2018-09-09T22:19:39.866Z,87.30
2018-09-09T22:22:09.567Z,87.00
2018-09-09T22:24:38.052Z,86.60
2018-09-09T22:27:06.652Z,86.20
2018-09-09T22:29:35.125Z,85.80
2018-09-09T22:32:03.712Z,85.50
2018-09-09T22:34:32.253Z,85.40
2018-09-09T22:37:00.765Z,85.30
2018-09-09T22:39:29.338Z,85.00
2018-09-09T22:41:57.792Z,85.00
2018-09-09T22:44:26.520Z,84.90
2018-09-09T22:46:55.000Z,85.00
2018-09-09T22:49:23.417Z,85.60
2018-09-09T22:51:52.057Z,85.80
2018-09-09T22:54:20.786Z,86.00
2018-09-09T22:56:49.229Z,86.00
2018-09-09T22:59:17.669Z,86.20
2018-09-09T23:01:46.118Z,86.10
2018-09-09T23:04:14.581Z,86.10
2018-09-09T23:06:43.061Z,86.00
2018-09-09T23:09:12.753Z,85.70
2018-09-09T23:11:41.215Z,85.50
2018-09-09T23:14:09.753Z,85.30
2018-09-09T23:16:38.242Z,84.90
2018-09-09T23:19:06.799Z,84.90
2018-09-09T23:21:35.289Z,84.60
2018-09-09T23:24:03.857Z,84.40
2018-09-09T23:26:32.276Z,84.00
2018-09-09T23:29:00.709Z,83.80
2018-09-09T23:31:29.224Z,83.60
2018-09-09T23:33:57.699Z,83.20
2018-09-09T23:36:26.136Z,82.90
2018-09-09T23:38:54.624Z,82.80
2018-09-09T23:41:23.077Z,82.50
2018-09-09T23:43:51.494Z,82.30
2018-09-09T23:46:20.025Z,82.30
2018-09-09T23:48:48.492Z,82.20
2018-09-09T23:51:16.977Z,82.20
2018-09-09T23:53:45.422Z,82.30
2018-09-09T23:56:13.929Z,82.10
2018-09-09T23:58:42.361Z,82.20
